sensor_id;sensor_type;location;lat;lon;timestamp;P1;durP1;ratioP1;P2;durP2;ratioP2
74158;SDS011;62511;47.970;11.774;2022-07-29T00:02:23;1.83;;;0.98;;
74158;SDS011;62511;47.970;11.774;2022-07-29T00:04:49;2.35;;;1.20;;
74158;SDS011;62511;47.970;11.774;2022-07-29T00:07:15;1.30;;;1.20;;
74158;SDS011;62511;47.970;11.774;2022-07-29T00:09:41;1.75;;;1.30;;
74158;SDS011;62511;47.970;11.774;2022-07-29T00:12:07;1.92;;;1.30;;
74158;SDS011;62511;47.970;11.774;2022-07-29T00:14:34;1.10;;;0.80;;
74158;SDS011;62511;47.970;11.774;2022-07-29T00:17:00;2.05;;;1.30;;
74158;SDS011;62511;47.970;11.774;2022-07-29T00:19:26;1.45;;;0.90;;
74158;SDS011;62511;47.970;11.774;2022-07-29T00:21:52;1.38;;;1.10;;
74158;SDS011;62511;47.970;11.774;2022-07-29T00:24:18;1.02;;;0.93;;
74158;SDS011;62511;47.970;11.774;2022-07-29T00:26:44;1.20;;;0.93;;
74158;SDS011;62511;47.970;11.774;2022-07-29T00:29:10;1.55;;;1.15;;
74158;SDS011;62511;47.970;11.774;2022-07-29T00:31:36;1.60;;;1.00;;
74158;SDS011;62511;47.970;11.774;2022-07-29T00:34:02;1.42;;;1.13;;
74158;SDS011;62511;47.970;11.774;2022-07-29T00:36:28;1.60;;;1.17;;
74158;SDS011;62511;47.970;11.774;2022-07-29T00:38:54;1.38;;;1.17;;
74158;SDS011;62511;47.970;11.774;2022-07-29T00:41:20;1.95;;;1.20;;
74158;SDS011;62511;47.970;11.774;2022-07-29T00:43:46;1.63;;;1.10;;
74158;SDS011;62511;47.970;11.774;2022-07-29T00:46:12;1.73;;;1.08;;
74158;SDS011;62511;47.970;11.774;2022-07-29T00:48:38;1.83;;;1.00;;
74158;SDS011;62511;47.970;11.774;2022-07-29T00:51:05;1.55;;;1.20;;
74158;SDS011;62511;47.970;11.774;2022-07-29T00:53:32;1.80;;;1.38;;
74158;SDS011;62511;47.970;11.774;2022-07-29T00:55:59;2.00;;;1.02;;
74158;SDS011;62511;47.970;11.774;2022-07-29T00:58:25;2.50;;;1.10;;
74158;SDS011;62511;47.970;11.774;2022-07-29T01:00:52;1.35;;;1.00;;
74158;SDS011;62511;47.970;11.774;2022-07-29T01:03:18;1.23;;;1.02;;
74158;SDS011;62511;47.970;11.774;2022-07-29T01:05:44;1.15;;;1.00;;
74158;SDS011;62511;47.970;11.774;2022-07-29T01:08:11;3.15;;;1.42;;
74158;SDS011;62511;47.970;11.774;2022-07-29T01:10:38;1.10;;;1.00;;
74158;SDS011;62511;47.970;11.774;2022-07-29T01:31:44;1.35;;;1.20;;
74158;SDS011;62511;47.970;11.774;2022-07-29T01:34:11;1.73;;;1.17;;
74158;SDS011;62511;47.970;11.774;2022-07-29T01:36:45;1.42;;;1.13;;
74158;SDS011;62511;47.970;11.774;2022-07-29T01:39:19;1.25;;;1.15;;
74158;SDS011;62511;47.970;11.774;2022-07-29T01:44:13;1.27;;;1.08;;
74158;SDS011;62511;47.970;11.774;2022-07-29T01:46:41;1.20;;;1.10;;
74158;SDS011;62511;47.970;11.774;2022-07-29T01:49:10;2.03;;;1.17;;
74158;SDS011;62511;47.970;11.774;2022-07-29T01:54:25;1.13;;;0.90;;
74158;SDS011;62511;47.970;11.774;2022-07-29T01:56:53;0.93;;;0.90;;
74158;SDS011;62511;47.970;11.774;2022-07-29T01:59:21;1.05;;;0.95;;
74158;SDS011;62511;47.970;11.774;2022-07-29T02:01:49;1.20;;;1.10;;
74158;SDS011;62511;47.970;11.774;2022-07-29T02:04:16;1.13;;;1.00;;
74158;SDS011;62511;47.970;11.774;2022-07-29T02:06:43;1.00;;;0.90;;
74158;SDS011;62511;47.970;11.774;2022-07-29T02:09:10;1.20;;;0.93;;
74158;SDS011;62511;47.970;11.774;2022-07-29T02:11:37;1.67;;;1.13;;
74158;SDS011;62511;47.970;11.774;2022-07-29T02:14:04;1.58;;;1.20;;
74158;SDS011;62511;47.970;11.774;2022-07-29T02:16:30;1.17;;;1.05;;
74158;SDS011;62511;47.970;11.774;2022-07-29T02:18:57;1.50;;;1.17;;
74158;SDS011;62511;47.970;11.774;2022-07-29T02:21:26;1.58;;;1.38;;
74158;SDS011;62511;47.970;11.774;2022-07-29T02:23:53;2.15;;;1.10;;
74158;SDS011;62511;47.970;11.774;2022-07-29T02:28:47;1.17;;;1.05;;
74158;SDS011;62511;47.970;11.774;2022-07-29T02:31:13;1.45;;;1.20;;
74158;SDS011;62511;47.970;11.774;2022-07-29T02:33:40;1.08;;;0.93;;
74158;SDS011;62511;47.970;11.774;2022-07-29T02:38:33;1.10;;;1.00;;
74158;SDS011;62511;47.970;11.774;2022-07-29T02:41:23;2.70;;;1.13;;
74158;SDS011;62511;47.970;11.774;2022-07-29T02:43:53;1.35;;;1.25;;
74158;SDS011;62511;47.970;11.774;2022-07-29T02:46:30;2.40;;;0.95;;
74158;SDS011;62511;47.970;11.774;2022-07-29T02:49:09;1.10;;;1.00;;
74158;SDS011;62511;47.970;11.774;2022-07-29T02:51:45;1.30;;;1.08;;
74158;SDS011;62511;47.970;11.774;2022-07-29T02:54:20;2.63;;;1.00;;
74158;SDS011;62511;47.970;11.774;2022-07-29T02:56:48;1.52;;;1.10;;
74158;SDS011;62511;47.970;11.774;2022-07-29T02:59:17;1.52;;;1.15;;
74158;SDS011;62511;47.970;11.774;2022-07-29T03:01:46;1.63;;;1.00;;
74158;SDS011;62511;47.970;11.774;2022-07-29T03:04:12;2.05;;;1.20;;
74158;SDS011;62511;47.970;11.774;2022-07-29T03:06:40;2.03;;;1.30;;
74158;SDS011;62511;47.970;11.774;2022-07-29T03:09:06;2.05;;;0.93;;
74158;SDS011;62511;47.970;11.774;2022-07-29T03:11:33;1.40;;;1.13;;
74158;SDS011;62511;47.970;11.774;2022-07-29T03:13:59;1.55;;;1.23;;
74158;SDS011;62511;47.970;11.774;2022-07-29T03:16:26;1.40;;;1.00;;
74158;SDS011;62511;47.970;11.774;2022-07-29T03:18:52;1.38;;;1.10;;
74158;SDS011;62511;47.970;11.774;2022-07-29T03:21:18;1.20;;;0.80;;
74158;SDS011;62511;47.970;11.774;2022-07-29T03:23:45;1.63;;;1.00;;
74158;SDS011;62511;47.970;11.774;2022-07-29T03:26:11;1.02;;;0.93;;
74158;SDS011;62511;47.970;11.774;2022-07-29T03:31:03;1.13;;;1.02;;
74158;SDS011;62511;47.970;11.774;2022-07-29T03:33:29;1.55;;;0.95;;
74158;SDS011;62511;47.970;11.774;2022-07-29T03:35:55;1.20;;;1.00;;
74158;SDS011;62511;47.970;11.774;2022-07-29T03:38:23;1.27;;;0.98;;
74158;SDS011;62511;47.970;11.774;2022-07-29T03:40:50;1.35;;;1.10;;
74158;SDS011;62511;47.970;11.774;2022-07-29T03:43:17;2.42;;;1.15;;
74158;SDS011;62511;47.970;11.774;2022-07-29T03:45:44;0.90;;;0.80;;
74158;SDS011;62511;47.970;11.774;2022-07-29T03:48:12;0.98;;;0.80;;
74158;SDS011;62511;47.970;11.774;2022-07-29T03:50:39;1.70;;;0.90;;
74158;SDS011;62511;47.970;11.774;2022-07-29T03:53:05;1.20;;;1.00;;
74158;SDS011;62511;47.970;11.774;2022-07-29T03:55:33;1.60;;;1.10;;
74158;SDS011;62511;47.970;11.774;2022-07-29T03:58:00;1.60;;;1.13;;
74158;SDS011;62511;47.970;11.774;2022-07-29T04:00:27;1.67;;;0.90;;
74158;SDS011;62511;47.970;11.774;2022-07-29T04:02:53;1.13;;;0.90;;
74158;SDS011;62511;47.970;11.774;2022-07-29T04:05:19;1.20;;;0.93;;
74158;SDS011;62511;47.970;11.774;2022-07-29T04:07:46;1.60;;;0.90;;
74158;SDS011;62511;47.970;11.774;2022-07-29T04:10:12;1.25;;;0.90;;
74158;SDS011;62511;47.970;11.774;2022-07-29T04:12:40;1.48;;;0.93;;
74158;SDS011;62511;47.970;11.774;2022-07-29T04:15:06;2.10;;;1.15;;
74158;SDS011;62511;47.970;11.774;2022-07-29T04:17:32;1.70;;;1.02;;
74158;SDS011;62511;47.970;11.774;2022-07-29T04:19:58;1.10;;;1.00;;
74158;SDS011;62511;47.970;11.774;2022-07-29T04:22:24;1.52;;;1.00;;
74158;SDS011;62511;47.970;11.774;2022-07-29T04:24:51;1.63;;;1.02;;
74158;SDS011;62511;47.970;11.774;2022-07-29T04:27:17;1.27;;;1.15;;
74158;SDS011;62511;47.970;11.774;2022-07-29T04:29:43;1.90;;;1.25;;
74158;SDS011;62511;47.970;11.774;2022-07-29T04:32:09;1.42;;;1.33;;
74158;SDS011;62511;47.970;11.774;2022-07-29T04:34:35;1.65;;;1.20;;
74158;SDS011;62511;47.970;11.774;2022-07-29T04:37:01;1.50;;;1.20;;
74158;SDS011;62511;47.970;11.774;2022-07-29T04:39:27;1.30;;;1.08;;
74158;SDS011;62511;47.970;11.774;2022-07-29T04:41:53;1.20;;;1.10;;
74158;SDS011;62511;47.970;11.774;2022-07-29T04:44:19;1.40;;;1.00;;
74158;SDS011;62511;47.970;11.774;2022-07-29T04:46:45;1.73;;;1.30;;
74158;SDS011;62511;47.970;11.774;2022-07-29T04:49:11;1.85;;;1.10;;
74158;SDS011;62511;47.970;11.774;2022-07-29T04:51:38;1.20;;;1.00;;
74158;SDS011;62511;47.970;11.774;2022-07-29T04:54:04;1.10;;;1.00;;
74158;SDS011;62511;47.970;11.774;2022-07-29T04:56:31;1.75;;;1.20;;
74158;SDS011;62511;47.970;11.774;2022-07-29T04:58:57;1.80;;;1.20;;
74158;SDS011;62511;47.970;11.774;2022-07-29T05:01:24;1.92;;;1.10;;
74158;SDS011;62511;47.970;11.774;2022-07-29T05:03:50;1.00;;;0.80;;
74158;SDS011;62511;47.970;11.774;2022-07-29T05:06:16;1.13;;;1.00;;
74158;SDS011;62511;47.970;11.774;2022-07-29T05:08:42;1.67;;;0.80;;
74158;SDS011;62511;47.970;11.774;2022-07-29T05:11:08;1.63;;;1.13;;
74158;SDS011;62511;47.970;11.774;2022-07-29T05:13:34;1.75;;;1.20;;
74158;SDS011;62511;47.970;11.774;2022-07-29T05:16:00;1.33;;;0.82;;
74158;SDS011;62511;47.970;11.774;2022-07-29T05:18:26;1.25;;;0.95;;
74158;SDS011;62511;47.970;11.774;2022-07-29T05:20:52;1.60;;;1.50;;
74158;SDS011;62511;47.970;11.774;2022-07-29T05:23:18;2.63;;;1.40;;
74158;SDS011;62511;47.970;11.774;2022-07-29T05:25:44;1.73;;;1.35;;
74158;SDS011;62511;47.970;11.774;2022-07-29T05:28:11;1.20;;;1.10;;
74158;SDS011;62511;47.970;11.774;2022-07-29T05:30:38;1.98;;;1.33;;
74158;SDS011;62511;47.970;11.774;2022-07-29T05:33:04;1.73;;;1.40;;
74158;SDS011;62511;47.970;11.774;2022-07-29T05:35:30;1.30;;;1.10;;
74158;SDS011;62511;47.970;11.774;2022-07-29T05:37:56;1.27;;;1.17;;
74158;SDS011;62511;47.970;11.774;2022-07-29T05:40:22;2.28;;;1.25;;
74158;SDS011;62511;47.970;11.774;2022-07-29T05:42:48;3.13;;;1.20;;
74158;SDS011;62511;47.970;11.774;2022-07-29T05:45:14;1.85;;;1.45;;
74158;SDS011;62511;47.970;11.774;2022-07-29T05:47:40;2.35;;;1.33;;
74158;SDS011;62511;47.970;11.774;2022-07-29T05:50:06;1.98;;;1.50;;
74158;SDS011;62511;47.970;11.774;2022-07-29T05:52:32;2.40;;;1.30;;
74158;SDS011;62511;47.970;11.774;2022-07-29T05:54:58;2.05;;;1.40;;
74158;SDS011;62511;47.970;11.774;2022-07-29T05:57:27;2.85;;;1.40;;
74158;SDS011;62511;47.970;11.774;2022-07-29T05:59:53;2.45;;;1.70;;
74158;SDS011;62511;47.970;11.774;2022-07-29T06:02:19;10.77;;;2.47;;
74158;SDS011;62511;47.970;11.774;2022-07-29T06:04:45;3.80;;;1.70;;
74158;SDS011;62511;47.970;11.774;2022-07-29T06:07:11;1.52;;;1.23;;
74158;SDS011;62511;47.970;11.774;2022-07-29T06:09:38;1.45;;;1.20;;
74158;SDS011;62511;47.970;11.774;2022-07-29T06:12:04;1.50;;;1.25;;
74158;SDS011;62511;47.970;11.774;2022-07-29T06:14:30;2.17;;;1.23;;
74158;SDS011;62511;47.970;11.774;2022-07-29T06:16:57;7.95;;;1.90;;
74158;SDS011;62511;47.970;11.774;2022-07-29T06:19:23;6.07;;;2.08;;
74158;SDS011;62511;47.970;11.774;2022-07-29T06:21:49;3.35;;;1.80;;
74158;SDS011;62511;47.970;11.774;2022-07-29T06:24:15;2.05;;;1.40;;
74158;SDS011;62511;47.970;11.774;2022-07-29T06:26:42;1.55;;;1.38;;
74158;SDS011;62511;47.970;11.774;2022-07-29T06:29:09;3.38;;;1.45;;
74158;SDS011;62511;47.970;11.774;2022-07-29T06:31:39;4.05;;;1.45;;
74158;SDS011;62511;47.970;11.774;2022-07-29T06:34:05;1.85;;;1.40;;
74158;SDS011;62511;47.970;11.774;2022-07-29T06:36:34;2.08;;;1.30;;
74158;SDS011;62511;47.970;11.774;2022-07-29T06:39:01;1.58;;;1.20;;
74158;SDS011;62511;47.970;11.774;2022-07-29T06:41:27;2.88;;;1.10;;
74158;SDS011;62511;47.970;11.774;2022-07-29T06:43:53;2.40;;;1.20;;
74158;SDS011;62511;47.970;11.774;2022-07-29T06:46:19;1.63;;;1.25;;
74158;SDS011;62511;47.970;11.774;2022-07-29T06:51:12;1.77;;;1.30;;
74158;SDS011;62511;47.970;11.774;2022-07-29T06:53:38;2.08;;;1.17;;
74158;SDS011;62511;47.970;11.774;2022-07-29T06:56:05;1.90;;;1.20;;
74158;SDS011;62511;47.970;11.774;2022-07-29T06:58:34;1.35;;;1.15;;
74158;SDS011;62511;47.970;11.774;2022-07-29T07:01:03;1.67;;;1.33;;
74158;SDS011;62511;47.970;11.774;2022-07-29T07:03:30;1.65;;;1.30;;
74158;SDS011;62511;47.970;11.774;2022-07-29T07:05:56;1.48;;;1.10;;
74158;SDS011;62511;47.970;11.774;2022-07-29T07:08:22;1.45;;;1.20;;
74158;SDS011;62511;47.970;11.774;2022-07-29T07:10:49;2.38;;;1.13;;
74158;SDS011;62511;47.970;11.774;2022-07-29T07:13:15;2.38;;;1.27;;
74158;SDS011;62511;47.970;11.774;2022-07-29T07:18:08;1.63;;;1.20;;
74158;SDS011;62511;47.970;11.774;2022-07-29T07:20:34;2.55;;;1.40;;
74158;SDS011;62511;47.970;11.774;2022-07-29T07:23:00;1.52;;;1.30;;
74158;SDS011;62511;47.970;11.774;2022-07-29T07:25:26;1.33;;;1.23;;
74158;SDS011;62511;47.970;11.774;2022-07-29T07:27:52;1.90;;;1.10;;
74158;SDS011;62511;47.970;11.774;2022-07-29T07:30:18;2.30;;;1.40;;
74158;SDS011;62511;47.970;11.774;2022-07-29T07:32:44;2.20;;;1.40;;
74158;SDS011;62511;47.970;11.774;2022-07-29T07:35:10;1.45;;;1.17;;
74158;SDS011;62511;47.970;11.774;2022-07-29T07:37:37;1.50;;;1.10;;
74158;SDS011;62511;47.970;11.774;2022-07-29T07:40:05;2.08;;;1.17;;
74158;SDS011;62511;47.970;11.774;2022-07-29T07:42:32;1.15;;;1.02;;
74158;SDS011;62511;47.970;11.774;2022-07-29T07:44:58;2.33;;;1.10;;
74158;SDS011;62511;47.970;11.774;2022-07-29T07:47:24;2.03;;;1.20;;
74158;SDS011;62511;47.970;11.774;2022-07-29T07:49:50;1.52;;;1.05;;
74158;SDS011;62511;47.970;11.774;2022-07-29T07:52:17;3.80;;;1.10;;
74158;SDS011;62511;47.970;11.774;2022-07-29T07:54:43;1.10;;;1.00;;
74158;SDS011;62511;47.970;11.774;2022-07-29T07:57:10;1.77;;;1.17;;
74158;SDS011;62511;47.970;11.774;2022-07-29T07:59:36;1.30;;;1.20;;
74158;SDS011;62511;47.970;11.774;2022-07-29T08:02:02;1.42;;;1.10;;
74158;SDS011;62511;47.970;11.774;2022-07-29T08:04:28;1.58;;;1.10;;
74158;SDS011;62511;47.970;11.774;2022-07-29T08:06:55;2.00;;;1.00;;
74158;SDS011;62511;47.970;11.774;2022-07-29T08:09:21;1.00;;;0.90;;
74158;SDS011;62511;47.970;11.774;2022-07-29T08:11:47;0.90;;;0.90;;
74158;SDS011;62511;47.970;11.774;2022-07-29T08:14:13;3.38;;;1.00;;
74158;SDS011;62511;47.970;11.774;2022-07-29T08:16:39;0.90;;;0.80;;
74158;SDS011;62511;47.970;11.774;2022-07-29T08:19:06;2.70;;;0.98;;
74158;SDS011;62511;47.970;11.774;2022-07-29T08:21:33;2.08;;;0.80;;
74158;SDS011;62511;47.970;11.774;2022-07-29T08:23:59;1.27;;;0.98;;
74158;SDS011;62511;47.970;11.774;2022-07-29T08:26:43;1.08;;;0.98;;
74158;SDS011;62511;47.970;11.774;2022-07-29T08:29:09;1.08;;;0.80;;
74158;SDS011;62511;47.970;11.774;2022-07-29T08:31:36;0.90;;;0.70;;
74158;SDS011;62511;47.970;11.774;2022-07-29T08:34:03;1.33;;;1.00;;
74158;SDS011;62511;47.970;11.774;2022-07-29T08:38:55;0.85;;;0.80;;
74158;SDS011;62511;47.970;11.774;2022-07-29T08:41:21;0.95;;;0.85;;
74158;SDS011;62511;47.970;11.774;2022-07-29T08:43:47;2.38;;;1.00;;
74158;SDS011;62511;47.970;11.774;2022-07-29T08:48:39;1.83;;;1.00;;
74158;SDS011;62511;47.970;11.774;2022-07-29T08:51:06;1.98;;;1.00;;
74158;SDS011;62511;47.970;11.774;2022-07-29T08:53:33;1.00;;;0.90;;
74158;SDS011;62511;47.970;11.774;2022-07-29T08:56:02;1.15;;;1.05;;
74158;SDS011;62511;47.970;11.774;2022-07-29T08:58:31;0.90;;;0.80;;
74158;SDS011;62511;47.970;11.774;2022-07-29T09:00:57;2.03;;;1.20;;
74158;SDS011;62511;47.970;11.774;2022-07-29T09:03:29;1.45;;;1.00;;
74158;SDS011;62511;47.970;11.774;2022-07-29T09:05:55;1.63;;;1.27;;
74158;SDS011;62511;47.970;11.774;2022-07-29T09:08:21;1.35;;;0.98;;
74158;SDS011;62511;47.970;11.774;2022-07-29T09:10:48;1.65;;;0.95;;
74158;SDS011;62511;47.970;11.774;2022-07-29T09:13:14;1.20;;;1.10;;
74158;SDS011;62511;47.970;11.774;2022-07-29T09:15:40;1.85;;;1.25;;
74158;SDS011;62511;47.970;11.774;2022-07-29T09:18:06;1.55;;;1.20;;
74158;SDS011;62511;47.970;11.774;2022-07-29T09:20:32;2.00;;;1.20;;
74158;SDS011;62511;47.970;11.774;2022-07-29T09:23:17;1.40;;;1.13;;
74158;SDS011;62511;47.970;11.774;2022-07-29T09:25:43;1.73;;;1.40;;
74158;SDS011;62511;47.970;11.774;2022-07-29T09:28:13;0.90;;;0.88;;
74158;SDS011;62511;47.970;11.774;2022-07-29T09:30:52;3.22;;;1.30;;
74158;SDS011;62511;47.970;11.774;2022-07-29T09:35:44;2.17;;;1.25;;
74158;SDS011;62511;47.970;11.774;2022-07-29T09:38:11;1.63;;;1.30;;
74158;SDS011;62511;47.970;11.774;2022-07-29T09:40:37;1.50;;;1.20;;
74158;SDS011;62511;47.970;11.774;2022-07-29T09:43:10;2.13;;;1.52;;
74158;SDS011;62511;47.970;11.774;2022-07-29T09:45:37;1.73;;;1.23;;
74158;SDS011;62511;47.970;11.774;2022-07-29T09:48:16;1.88;;;1.50;;
74158;SDS011;62511;47.970;11.774;2022-07-29T09:50:43;1.38;;;1.27;;
74158;SDS011;62511;47.970;11.774;2022-07-29T09:53:10;3.15;;;1.65;;
74158;SDS011;62511;47.970;11.774;2022-07-29T09:55:46;2.40;;;1.65;;
74158;SDS011;62511;47.970;11.774;2022-07-29T10:00:42;2.47;;;1.60;;
74158;SDS011;62511;47.970;11.774;2022-07-29T10:03:09;2.80;;;1.60;;
74158;SDS011;62511;47.970;11.774;2022-07-29T10:05:35;2.00;;;1.50;;
74158;SDS011;62511;47.970;11.774;2022-07-29T10:08:01;1.98;;;1.52;;
74158;SDS011;62511;47.970;11.774;2022-07-29T10:10:31;2.00;;;1.80;;
74158;SDS011;62511;47.970;11.774;2022-07-29T10:13:02;2.00;;;1.30;;
74158;SDS011;62511;47.970;11.774;2022-07-29T10:15:32;1.55;;;1.20;;
74158;SDS011;62511;47.970;11.774;2022-07-29T10:17:59;2.95;;;1.60;;
74158;SDS011;62511;47.970;11.774;2022-07-29T10:20:26;2.83;;;1.08;;
74158;SDS011;62511;47.970;11.774;2022-07-29T10:22:53;2.38;;;1.30;;
74158;SDS011;62511;47.970;11.774;2022-07-29T10:25:20;2.63;;;1.70;;
74158;SDS011;62511;47.970;11.774;2022-07-29T10:27:47;1.98;;;1.48;;
74158;SDS011;62511;47.970;11.774;2022-07-29T10:30:13;1.83;;;1.70;;
74158;SDS011;62511;47.970;11.774;2022-07-29T10:35:33;1.88;;;1.52;;
74158;SDS011;62511;47.970;11.774;2022-07-29T10:43:16;2.58;;;1.60;;
74158;SDS011;62511;47.970;11.774;2022-07-29T10:45:44;2.67;;;1.63;;
74158;SDS011;62511;47.970;11.774;2022-07-29T10:48:10;1.95;;;1.70;;
74158;SDS011;62511;47.970;11.774;2022-07-29T10:50:53;3.92;;;1.58;;
74158;SDS011;62511;47.970;11.774;2022-07-29T10:53:21;1.90;;;1.70;;
74158;SDS011;62511;47.970;11.774;2022-07-29T10:55:48;3.60;;;1.60;;
74158;SDS011;62511;47.970;11.774;2022-07-29T10:58:21;2.17;;;1.60;;
74158;SDS011;62511;47.970;11.774;2022-07-29T11:00:52;4.18;;;1.70;;
74158;SDS011;62511;47.970;11.774;2022-07-29T11:06:03;2.30;;;1.65;;
74158;SDS011;62511;47.970;11.774;2022-07-29T11:08:29;4.40;;;2.25;;
74158;SDS011;62511;47.970;11.774;2022-07-29T11:16:12;4.53;;;1.80;;
74158;SDS011;62511;47.970;11.774;2022-07-29T11:21:36;1.95;;;1.70;;
74158;SDS011;62511;47.970;11.774;2022-07-29T11:26:41;3.75;;;2.15;;
74158;SDS011;62511;47.970;11.774;2022-07-29T11:29:16;2.78;;;1.63;;
74158;SDS011;62511;47.970;11.774;2022-07-29T11:34:25;2.28;;;1.92;;
74158;SDS011;62511;47.970;11.774;2022-07-29T11:39:38;1.40;;;1.30;;
74158;SDS011;62511;47.970;11.774;2022-07-29T11:47:28;1.52;;;1.35;;
74158;SDS011;62511;47.970;11.774;2022-07-29T11:49:54;1.92;;;1.30;;
74158;SDS011;62511;47.970;11.774;2022-07-29T11:52:22;2.92;;;1.77;;
74158;SDS011;62511;47.970;11.774;2022-07-29T11:54:48;3.25;;;1.60;;
74158;SDS011;62511;47.970;11.774;2022-07-29T11:57:16;2.13;;;1.40;;
74158;SDS011;62511;47.970;11.774;2022-07-29T11:59:43;2.30;;;1.73;;
74158;SDS011;62511;47.970;11.774;2022-07-29T12:02:10;1.77;;;1.52;;
74158;SDS011;62511;47.970;11.774;2022-07-29T12:07:02;1.52;;;1.38;;
74158;SDS011;62511;47.970;11.774;2022-07-29T12:09:28;3.50;;;1.40;;
74158;SDS011;62511;47.970;11.774;2022-07-29T12:11:57;1.77;;;1.65;;
74158;SDS011;62511;47.970;11.774;2022-07-29T12:14:27;3.08;;;1.17;;
74158;SDS011;62511;47.970;11.774;2022-07-29T12:16:53;1.55;;;1.42;;
74158;SDS011;62511;47.970;11.774;2022-07-29T12:19:19;1.77;;;1.33;;
74158;SDS011;62511;47.970;11.774;2022-07-29T12:24:11;2.70;;;1.60;;
74158;SDS011;62511;47.970;11.774;2022-07-29T12:26:48;2.20;;;1.42;;
74158;SDS011;62511;47.970;11.774;2022-07-29T12:29:15;1.98;;;1.45;;
74158;SDS011;62511;47.970;11.774;2022-07-29T12:31:42;1.88;;;1.45;;
74158;SDS011;62511;47.970;11.774;2022-07-29T12:36:34;3.90;;;1.67;;
74158;SDS011;62511;47.970;11.774;2022-07-29T12:39:00;2.70;;;1.30;;
74158;SDS011;62511;47.970;11.774;2022-07-29T12:41:29;1.92;;;1.50;;
74158;SDS011;62511;47.970;11.774;2022-07-29T12:43:55;2.15;;;1.65;;
74158;SDS011;62511;47.970;11.774;2022-07-29T12:46:21;3.22;;;1.48;;
74158;SDS011;62511;47.970;11.774;2022-07-29T12:48:50;1.63;;;1.13;;
74158;SDS011;62511;47.970;11.774;2022-07-29T12:51:27;1.95;;;1.35;;
74158;SDS011;62511;47.970;11.774;2022-07-29T12:54:07;2.60;;;1.30;;
74158;SDS011;62511;47.970;11.774;2022-07-29T12:56:35;1.63;;;1.52;;
74158;SDS011;62511;47.970;11.774;2022-07-29T12:59:10;3.85;;;1.58;;
74158;SDS011;62511;47.970;11.774;2022-07-29T13:01:36;2.38;;;1.42;;
74158;SDS011;62511;47.970;11.774;2022-07-29T13:04:03;1.98;;;1.30;;
74158;SDS011;62511;47.970;11.774;2022-07-29T13:06:33;1.23;;;1.10;;
74158;SDS011;62511;47.970;11.774;2022-07-29T13:09:09;2.45;;;1.75;;
74158;SDS011;62511;47.970;11.774;2022-07-29T13:11:37;2.17;;;1.30;;
74158;SDS011;62511;47.970;11.774;2022-07-29T13:14:04;1.20;;;1.10;;
74158;SDS011;62511;47.970;11.774;2022-07-29T13:16:31;3.08;;;1.50;;
74158;SDS011;62511;47.970;11.774;2022-07-29T13:19:03;2.60;;;1.60;;
74158;SDS011;62511;47.970;11.774;2022-07-29T13:21:30;2.22;;;1.52;;
74158;SDS011;62511;47.970;11.774;2022-07-29T13:23:56;2.03;;;1.63;;
74158;SDS011;62511;47.970;11.774;2022-07-29T13:26:22;1.30;;;1.20;;
74158;SDS011;62511;47.970;11.774;2022-07-29T13:28:48;3.10;;;1.88;;
74158;SDS011;62511;47.970;11.774;2022-07-29T13:31:14;2.33;;;1.40;;
74158;SDS011;62511;47.970;11.774;2022-07-29T13:33:40;2.28;;;1.23;;
74158;SDS011;62511;47.970;11.774;2022-07-29T13:36:06;3.35;;;1.60;;
74158;SDS011;62511;47.970;11.774;2022-07-29T13:38:32;1.23;;;1.13;;
74158;SDS011;62511;47.970;11.774;2022-07-29T13:40:58;1.85;;;1.35;;
74158;SDS011;62511;47.970;11.774;2022-07-29T13:43:25;1.98;;;1.15;;
74158;SDS011;62511;47.970;11.774;2022-07-29T13:45:51;2.22;;;1.10;;
74158;SDS011;62511;47.970;11.774;2022-07-29T13:48:17;1.90;;;1.25;;
74158;SDS011;62511;47.970;11.774;2022-07-29T13:50:43;3.90;;;1.50;;
74158;SDS011;62511;47.970;11.774;2022-07-29T13:53:10;2.10;;;1.00;;
74158;SDS011;62511;47.970;11.774;2022-07-29T13:55:36;2.17;;;1.30;;
74158;SDS011;62511;47.970;11.774;2022-07-29T13:58:02;1.30;;;1.20;;
74158;SDS011;62511;47.970;11.774;2022-07-29T14:00:28;2.60;;;1.40;;
74158;SDS011;62511;47.970;11.774;2022-07-29T14:02:54;2.30;;;1.40;;
74158;SDS011;62511;47.970;11.774;2022-07-29T14:05:21;2.42;;;1.40;;
74158;SDS011;62511;47.970;11.774;2022-07-29T14:07:47;1.60;;;1.42;;
74158;SDS011;62511;47.970;11.774;2022-07-29T14:10:13;2.33;;;1.50;;
74158;SDS011;62511;47.970;11.774;2022-07-29T14:12:39;1.55;;;1.20;;
74158;SDS011;62511;47.970;11.774;2022-07-29T14:15:07;1.90;;;1.25;;
74158;SDS011;62511;47.970;11.774;2022-07-29T14:17:33;1.58;;;1.35;;
74158;SDS011;62511;47.970;11.774;2022-07-29T14:20:03;1.73;;;1.30;;
74158;SDS011;62511;47.970;11.774;2022-07-29T14:22:29;2.28;;;1.40;;
74158;SDS011;62511;47.970;11.774;2022-07-29T14:24:55;2.00;;;1.40;;
74158;SDS011;62511;47.970;11.774;2022-07-29T14:27:21;4.60;;;1.40;;
74158;SDS011;62511;47.970;11.774;2022-07-29T14:29:47;2.67;;;1.30;;
74158;SDS011;62511;47.970;11.774;2022-07-29T14:34:40;1.90;;;1.65;;
74158;SDS011;62511;47.970;11.774;2022-07-29T14:37:06;2.72;;;1.40;;
74158;SDS011;62511;47.970;11.774;2022-07-29T14:39:33;2.00;;;1.58;;
74158;SDS011;62511;47.970;11.774;2022-07-29T14:42:00;2.47;;;1.35;;
74158;SDS011;62511;47.970;11.774;2022-07-29T14:44:26;2.88;;;1.60;;
74158;SDS011;62511;47.970;11.774;2022-07-29T14:46:56;1.75;;;1.65;;
74158;SDS011;62511;47.970;11.774;2022-07-29T14:49:22;2.90;;;2.28;;
74158;SDS011;62511;47.970;11.774;2022-07-29T14:51:48;3.42;;;1.70;;
74158;SDS011;62511;47.970;11.774;2022-07-29T14:54:14;1.73;;;1.55;;
74158;SDS011;62511;47.970;11.774;2022-07-29T14:56:40;3.03;;;1.63;;
74158;SDS011;62511;47.970;11.774;2022-07-29T14:59:07;2.45;;;1.40;;
74158;SDS011;62511;47.970;11.774;2022-07-29T15:01:33;1.95;;;1.60;;
74158;SDS011;62511;47.970;11.774;2022-07-29T15:03:59;3.05;;;1.60;;
74158;SDS011;62511;47.970;11.774;2022-07-29T15:06:25;2.65;;;1.50;;
74158;SDS011;62511;47.970;11.774;2022-07-29T15:08:51;1.60;;;1.48;;
74158;SDS011;62511;47.970;11.774;2022-07-29T15:11:17;2.83;;;1.58;;
74158;SDS011;62511;47.970;11.774;2022-07-29T15:13:43;1.80;;;1.60;;
74158;SDS011;62511;47.970;11.774;2022-07-29T15:16:09;1.83;;;1.50;;
74158;SDS011;62511;47.970;11.774;2022-07-29T15:18:35;3.08;;;1.58;;
74158;SDS011;62511;47.970;11.774;2022-07-29T15:21:03;2.42;;;1.60;;
74158;SDS011;62511;47.970;11.774;2022-07-29T15:23:31;2.50;;;1.60;;
74158;SDS011;62511;47.970;11.774;2022-07-29T15:25:57;3.00;;;1.40;;
74158;SDS011;62511;47.970;11.774;2022-07-29T15:28:23;1.80;;;1.55;;
74158;SDS011;62511;47.970;11.774;2022-07-29T15:30:49;1.70;;;1.58;;
74158;SDS011;62511;47.970;11.774;2022-07-29T15:33:15;2.20;;;1.33;;
74158;SDS011;62511;47.970;11.774;2022-07-29T15:35:41;1.88;;;1.60;;
74158;SDS011;62511;47.970;11.774;2022-07-29T15:38:07;2.00;;;1.33;;
74158;SDS011;62511;47.970;11.774;2022-07-29T15:40:33;2.38;;;1.60;;
74158;SDS011;62511;47.970;11.774;2022-07-29T15:43:05;1.95;;;1.42;;
74158;SDS011;62511;47.970;11.774;2022-07-29T15:45:38;1.85;;;1.70;;
74158;SDS011;62511;47.970;11.774;2022-07-29T15:48:06;1.95;;;1.55;;
74158;SDS011;62511;47.970;11.774;2022-07-29T15:50:32;3.78;;;1.50;;
74158;SDS011;62511;47.970;11.774;2022-07-29T15:52:58;1.90;;;1.70;;
74158;SDS011;62511;47.970;11.774;2022-07-29T15:55:24;2.28;;;1.70;;
74158;SDS011;62511;47.970;11.774;2022-07-29T15:57:51;1.95;;;1.60;;
74158;SDS011;62511;47.970;11.774;2022-07-29T16:00:17;2.97;;;1.48;;
74158;SDS011;62511;47.970;11.774;2022-07-29T16:02:43;2.20;;;1.90;;